Time;durP1;ratioP1;P1;durP2;ratioP2;P2;SDS_P1;SDS_P2;PMS_P1;PMS_P2;Temp;Humidity;BMP_temperature;BMP_pressure;BME280_temperature;BME280_humidity;BME280_pressure;Samples;Min_cycle;Max_cycle;Signal;HPM_P1;HPM_P2
2023/01/08 00:00:52;;;;;;;15.13;9.75;;;3.90;99.90;;;;;;5088276;28;20071;-72
2023/01/08 00:03:18;;;;;;;16.35;10.05;;;3.90;99.90;;;;;;5085528;28;20047;-70
2023/01/08 00:05:44;;;;;;;13.50;9.20;;;4.00;99.90;;;;;;5089577;28;20548;-70
2023/01/08 00:08:10;;;;;;;16.20;10.15;;;4.10;99.90;;;;;;5088601;28;20099;-71
2023/01/08 00:10:36;;;;;;;16.55;9.73;;;4.10;99.90;;;;;;5089765;28;20103;-71
2023/01/08 00:13:02;;;;;;;14.60;10.05;;;4.10;99.90;;;;;;5070640;28;20021;-71
2023/01/08 00:15:29;;;;;;;15.20;9.43;;;4.10;99.90;;;;;;5090007;28;20575;-71
2023/01/08 00:17:55;;;;;;;15.15;9.70;;;4.00;99.90;;;;;;5088432;28;20071;-71
2023/01/08 00:20:21;;;;;;;12.27;7.75;;;3.90;99.90;;;;;;5089765;28;20031;-71
2023/01/08 00:22:50;;;;;;;14.23;9.77;;;3.90;99.90;;;;;;5071291;28;20036;-71
2023/01/08 00:25:17;;;;;;;16.87;9.40;;;4.00;99.90;;;;;;5091116;28;20017;-71
2023/01/08 00:27:43;;;;;;;16.73;9.50;;;3.90;99.90;;;;;;5093697;28;20051;-71
2023/01/08 00:30:10;;;;;;;13.68;9.00;;;4.00;99.90;;;;;;5089202;28;20165;-71
2023/01/08 00:32:35;;;;;;;14.27;9.35;;;3.90;99.90;;;;;;5093395;28;20028;-71
2023/01/08 00:35:01;;;;;;;17.40;10.55;;;3.90;99.90;;;;;;5092470;28;20021;-71
2023/01/08 00:37:27;;;;;;;17.33;10.10;;;3.80;99.90;;;;;;5094085;28;20020;-71
2023/01/08 00:39:53;;;;;;;15.40;9.43;;;3.90;99.90;;;;;;5093330;28;20027;-71
2023/01/08 00:42:18;;;;;;;15.75;10.25;;;3.90;99.90;;;;;;5095447;28;20028;-70
2023/01/08 00:44:44;;;;;;;13.75;9.50;;;3.90;99.90;;;;;;5094547;28;20028;-70
2023/01/08 00:47:10;;;;;;;13.90;9.90;;;3.90;99.90;;;;;;5094331;28;20788;-70
2023/01/08 00:49:36;;;;;;;14.57;9.65;;;3.90;99.90;;;;;;5094594;28;20039;-70
2023/01/08 00:52:02;;;;;;;13.75;9.38;;;4.00;99.90;;;;;;5094112;28;20028;-70
2023/01/08 00:54:27;;;;;;;13.27;8.63;;;4.10;99.90;;;;;;5094557;28;20025;-70
2023/01/08 00:56:56;;;;;;;14.38;8.85;;;4.20;99.90;;;;;;5093915;28;20452;-71
2023/01/08 00:59:21;;;;;;;16.80;9.18;;;4.10;99.90;;;;;;5086502;28;20450;-71
2023/01/08 01:01:47;;;;;;;13.90;9.10;;;4.10;99.90;;;;;;5074106;28;20068;-71
2023/01/08 01:04:15;;;;;;;14.20;8.90;;;4.00;99.90;;;;;;5073183;28;20032;-71
2023/01/08 01:06:41;;;;;;;14.38;9.20;;;4.00;99.90;;;;;;5074147;28;20116;-71
2023/01/08 01:09:07;;;;;;;14.05;9.45;;;3.90;99.90;;;;;;5072927;28;20055;-71
2023/01/08 01:11:33;;;;;;;13.20;9.38;;;3.90;99.90;;;;;;5074389;28;20082;-71
2023/01/08 01:14:00;;;;;;;16.50;10.45;;;3.80;99.90;;;;;;5072928;28;20441;-70
2023/01/08 01:16:25;;;;;;;16.90;9.32;;;3.80;99.90;;;;;;5073865;28;20028;-70
2023/01/08 01:18:52;;;;;;;15.00;9.23;;;3.80;99.90;;;;;;5072789;28;20116;-72
2023/01/08 01:21:24;;;;;;;14.63;9.90;;;3.80;99.90;;;;;;5074157;28;20032;-71
2023/01/08 01:23:53;;;;;;;13.85;9.27;;;3.80;99.90;;;;;;5072734;28;20429;-72
2023/01/08 01:26:21;;;;;;;17.45;10.50;;;3.70;99.90;;;;;;5074037;28;20060;-71
2023/01/08 01:28:51;;;;;;;15.65;9.38;;;3.70;99.90;;;;;;5072836;28;20085;-71
2023/01/08 01:31:17;;;;;;;;;;;3.70;99.90;;;;;;5074423;28;20103;-71
2023/01/08 01:33:43;;;;;;;14.38;9.15;;;3.60;99.90;;;;;;5073377;28;20013;-69
2023/01/08 01:36:11;;;;;;;17.85;10.38;;;3.60;99.90;;;;;;5083560;28;20124;-70
2023/01/08 01:38:36;;;;;;;16.95;10.27;;;3.60;99.90;;;;;;5093412;28;20427;-70
2023/01/08 01:41:02;;;;;;;16.65;9.75;;;3.60;99.90;;;;;;5093531;28;20107;-70
2023/01/08 01:43:38;;;;;;;15.05;9.23;;;3.70;99.90;;;;;;5093526;28;20028;-70
2023/01/08 01:46:14;;;;;;;17.08;10.18;;;3.80;99.90;;;;;;5093060;28;20028;-70
2023/01/08 01:48:40;;;;;;;16.83;10.27;;;3.90;99.90;;;;;;5093260;28;20473;-70
2023/01/08 01:51:06;;;;;;;15.80;9.43;;;4.00;99.90;;;;;;5093060;28;20035;-71
2023/01/08 01:53:34;;;;;;;14.77;8.88;;;4.20;99.90;;;;;;5093392;28;20032;-71
2023/01/08 01:56:01;;;;;;;13.15;8.65;;;4.20;99.90;;;;;;5092869;28;20104;-71
2023/01/08 01:58:29;;;;;;;15.10;9.48;;;4.30;99.90;;;;;;5091387;28;20016;-72
2023/01/08 02:00:59;;;;;;;12.93;8.75;;;4.30;99.90;;;;;;5071823;28;20040;-70
2023/01/08 02:03:27;;;;;;;;;;;4.30;99.90;;;;;;5073284;28;20505;-70
2023/01/08 02:05:55;;;;;;;13.45;9.25;;;4.50;99.90;;;;;;5054360;28;20277;-71
2023/01/08 02:08:46;;;;;;;15.07;9.77;;;4.50;99.90;;;;;;5072844;28;20351;-71
2023/01/08 02:11:21;;;;;;;14.52;9.75;;;4.50;99.90;;;;;;5065171;28;20108;-71
2023/01/08 02:14:01;;;;;;;14.52;9.57;;;4.60;99.90;;;;;;5072832;28;20496;-70
2023/01/08 02:16:46;;;;;;;15.10;9.73;;;4.60;99.90;;;;;;5073580;28;20032;-70
2023/01/08 02:19:32;;;;;;;14.43;9.48;;;4.70;99.90;;;;;;5071639;28;20547;-70
2023/01/08 02:22:36;;;;;;;15.43;10.80;;;4.60;99.90;;;;;;5072293;28;20032;-70
2023/01/08 02:25:13;;;;;;;16.58;10.50;;;4.70;99.90;;;;;;5071385;28;20037;-70
2023/01/08 02:27:42;;;;;;;13.57;9.82;;;4.70;99.90;;;;;;5079277;28;20076;-70
2023/01/08 02:30:09;;;;;;;15.30;9.20;;;4.70;99.90;;;;;;5091785;28;20105;-70
2023/01/08 02:32:37;;;;;;;14.63;10.02;;;4.70;99.90;;;;;;5091829;28;20028;-69
2023/01/08 02:35:05;;;;;;;14.23;9.48;;;4.70;99.90;;;;;;5091854;28;20020;-69
2023/01/08 02:37:30;;;;;;;13.00;9.00;;;4.80;99.90;;;;;;5092435;28;20338;-69
2023/01/08 02:40:05;;;;;;;15.27;9.45;;;4.80;99.90;;;;;;5091480;28;20026;-69
2023/01/08 02:42:49;;;;;;;14.52;9.52;;;4.80;99.90;;;;;;5092979;28;20024;-69
2023/01/08 02:45:45;;;;;;;10.88;7.70;;;4.90;99.90;;;;;;5092095;28;20024;-70
2023/01/08 02:48:34;;;;;;;9.60;6.13;;;4.90;99.90;;;;;;5091261;28;20035;-70
2023/01/08 02:51:09;;;;;;;9.93;6.00;;;5.10;99.90;;;;;;5092106;28;20028;-70
2023/01/08 02:53:39;;;;;;;7.57;5.15;;;5.20;99.90;;;;;;5092209;28;20368;-70
2023/01/08 02:56:13;;;;;;;;;;;5.40;99.90;;;;;;5091909;28;20373;-70
2023/01/08 02:58:42;;;;;;;7.93;5.28;;;5.50;99.90;;;;;;5084285;28;19920;-70
2023/01/08 03:01:10;;;;;;;8.05;5.28;;;5.60;99.90;;;;;;5072003;28;20032;-70
2023/01/08 03:03:40;;;;;;;9.45;7.47;;;5.70;99.90;;;;;;5071768;28;20107;-70
2023/01/08 03:06:11;;;;;;;11.88;7.32;;;5.80;99.90;;;;;;5071533;28;20496;-70
2023/01/08 03:08:40;;;;;;;12.63;7.13;;;5.80;99.90;;;;;;5071830;28;20039;-70
2023/01/08 03:11:09;;;;;;;10.90;7.50;;;5.70;99.90;;;;;;5071363;28;20020;-69
2023/01/08 03:13:44;;;;;;;10.25;7.15;;;5.60;99.90;;;;;;5071483;28;20471;-70
2023/01/08 03:16:35;;;;;;;8.18;4.80;;;5.60;99.90;;;;;;5070722;28;20090;-70
2023/01/08 03:19:17;;;;;;;6.88;4.85;;;5.60;99.90;;;;;;5070648;28;20040;-70
2023/01/08 03:21:45;;;;;;;6.10;3.78;;;5.80;99.90;;;;;;5071930;28;20032;-71
2023/01/08 03:24:15;;;;;;;9.48;5.50;;;5.90;99.90;;;;;;5069948;28;20052;-71
2023/01/08 03:26:43;;;;;;;7.97;6.15;;;5.90;99.90;;;;;;5071548;28;20097;-72
2023/01/08 03:29:14;;;;;;;10.75;7.53;;;6.00;99.90;;;;;;5079145;28;20242;-71
2023/01/08 03:31:42;;;;;;;10.68;7.00;;;6.00;99.90;;;;;;5091952;28;20061;-71
2023/01/08 03:34:08;;;;;;;13.30;7.50;;;5.90;99.90;;;;;;5090562;28;20032;-71
2023/01/08 03:36:37;;;;;;;10.90;7.65;;;5.90;99.90;;;;;;5091742;28;20115;-71
2023/01/08 03:39:28;;;;;;;12.27;7.78;;;5.80;99.90;;;;;;5090228;28;20166;-71
2023/01/08 03:41:55;;;;;;;;;;;5.80;99.90;;;;;;5090707;28;20040;-71
2023/01/08 03:44:21;;;;;;;12.60;7.55;;;5.70;99.90;;;;;;5091343;28;19904;-71
2023/01/08 03:46:51;;;;;;;10.20;7.32;;;5.70;99.90;;;;;;5091772;28;20091;-71
2023/01/08 03:49:18;;;;;;;11.68;8.15;;;5.60;99.90;;;;;;5091552;28;20036;-71
2023/01/08 03:51:46;;;;;;;11.68;7.50;;;5.60;99.90;;;;;;5092082;28;20028;-71
2023/01/08 03:54:20;;;;;;;14.68;7.15;;;5.50;99.90;;;;;;5090351;28;20571;-71
2023/01/08 03:56:46;;;;;;;10.82;6.00;;;5.50;99.90;;;;;;5090309;28;20024;-71
2023/01/08 03:59:12;;;;;;;7.00;5.25;;;5.60;99.90;;;;;;5090077;28;20448;-71
2023/01/08 04:01:38;;;;;;;7.32;5.15;;;5.70;99.90;;;;;;5091446;28;20035;-71
2023/01/08 04:04:05;;;;;;;6.50;4.55;;;5.70;99.90;;;;;;5090174;28;20372;-70
2023/01/08 04:06:30;;;;;;;7.80;4.28;;;5.90;99.90;;;;;;5084977;28;20032;-70
2023/01/08 04:08:56;;;;;;;7.20;4.55;;;5.90;99.90;;;;;;5068333;28;20086;-70
2023/01/08 04:11:21;;;;;;;6.72;4.40;;;6.00;99.90;;;;;;5071217;28;20055;-70
2023/01/08 04:13:47;;;;;;;8.25;4.93;;;6.10;99.90;;;;;;5070793;28;20068;-70
2023/01/08 04:16:12;;;;;;;7.00;5.00;;;6.10;99.90;;;;;;5070551;28;20020;-70
2023/01/08 04:18:38;;;;;;;10.38;7.07;;;6.10;99.90;;;;;;5070483;28;20025;-70
2023/01/08 04:21:04;;;;;;;11.30;7.75;;;6.10;99.90;;;;;;5070348;28;20032;-70
2023/01/08 04:23:29;;;;;;;10.40;7.32;;;6.10;99.90;;;;;;5070037;28;20139;-70
2023/01/08 04:25:55;;;;;;;11.32;7.82;;;6.00;99.90;;;;;;5070341;28;20024;-71
2023/01/08 04:28:21;;;;;;;6.78;4.68;;;6.00;99.90;;;;;;5073061;28;20078;-70
2023/01/08 04:30:46;;;;;;;6.90;4.93;;;6.00;99.90;;;;;;5070225;28;20492;-70
2023/01/08 04:33:12;;;;;;;8.45;4.30;;;6.10;99.90;;;;;;5069806;28;20031;-70
2023/01/08 04:35:38;;;;;;;5.38;4.15;;;6.10;99.90;;;;;;5077170;28;20465;-71
2023/01/08 04:38:04;;;;;;;6.68;3.60;;;6.30;99.90;;;;;;5089867;28;20028;-71
2023/01/08 04:40:31;;;;;;;6.53;3.53;;;6.40;99.90;;;;;;5090610;28;20381;-71
2023/01/08 04:42:57;;;;;;;7.95;3.40;;;6.60;99.90;;;;;;5089683;28;20469;-71
2023/01/08 04:45:23;;;;;;;4.90;3.50;;;6.90;99.90;;;;;;5091129;28;20031;-71
2023/01/08 04:47:55;;;;;;;5.70;3.33;;;7.10;99.90;;;;;;5090784;28;20035;-72
2023/01/08 04:50:20;;;;;;;4.93;3.20;;;7.30;99.90;;;;;;5091074;28;20046;-71
2023/01/08 04:52:46;;;;;;;5.03;3.15;;;7.50;99.90;;;;;;5091162;28;20457;-70
2023/01/08 04:55:11;;;;;;;4.07;2.80;;;7.60;99.90;;;;;;5089864;28;20039;-71
2023/01/08 04:57:37;;;;;;;5.10;2.72;;;7.70;99.90;;;;;;5085258;28;20028;-70
2023/01/08 05:00:06;;;;;;;6.03;3.00;;;;;;;;;;5089670;28;20115;-70
2023/01/08 05:02:31;;;;;;;3.35;2.42;;;7.80;99.90;;;;;;5091030;28;20041;-70
2023/01/08 05:04:57;;;;;;;3.80;2.15;;;7.90;99.90;;;;;;5089317;28;20152;-70
2023/01/08 05:07:22;;;;;;;2.50;1.90;;;8.10;99.90;;;;;;5091267;28;20393;-70
2023/01/08 05:09:48;;;;;;;2.38;2.10;;;8.30;99.90;;;;;;5090137;28;20038;-71
2023/01/08 05:12:14;;;;;;;3.25;1.98;;;8.60;99.90;;;;;;5093904;28;20421;-70
2023/01/08 05:14:39;;;;;;;3.75;1.77;;;8.80;99.90;;;;;;5093929;28;20036;-69
2023/01/08 05:17:05;;;;;;;2.78;1.95;;;9.00;99.90;;;;;;5093841;28;20063;-71
2023/01/08 05:19:30;;;;;;;2.10;1.50;;;9.10;99.90;;;;;;5094263;28;20377;-70
2023/01/08 05:21:56;;;;;;;3.22;1.50;;;9.20;99.90;;;;;;5094012;28;20073;-71
2023/01/08 05:24:22;;;;;;;1.88;1.67;;;9.30;99.90;;;;;;5091882;28;20507;-71
2023/01/08 05:26:49;;;;;;;2.40;1.77;;;9.30;99.90;;;;;;5092227;28;20071;-73
2023/01/08 05:29:15;;;;;;;3.13;1.35;;;9.30;99.90;;;;;;5093574;28;20071;-70
2023/01/08 05:31:40;;;;;;;3.50;1.55;;;9.30;99.90;;;;;;5094296;28;20425;-71
2023/01/08 05:34:06;;;;;;;2.38;1.40;;;9.30;99.90;;;;;;5092798;28;20036;-71
2023/01/08 05:36:31;;;;;;;2.45;1.35;;;9.30;99.90;;;;;;5078388;28;20024;-71
2023/01/08 05:38:57;;;;;;;2.53;1.27;;;9.20;99.90;;;;;;5092814;28;20303;-72
2023/01/08 05:41:23;;;;;;;2.90;1.60;;;9.30;99.90;;;;;;5094210;28;20020;-70
2023/01/08 05:43:48;;;;;;;2.38;1.75;;;9.20;99.90;;;;;;5093343;28;20407;-72
2023/01/08 05:46:14;;;;;;;1.92;1.50;;;9.10;99.90;;;;;;5093296;28;20042;-71
2023/01/08 05:48:39;;;;;;;1.70;1.20;;;9.10;99.90;;;;;;5093419;28;20377;-70
2023/01/08 05:51:05;;;;;;;0.98;0.88;;;9.00;99.90;;;;;;5093138;28;20103;-71
2023/01/08 05:53:31;;;;;;;2.83;1.13;;;9.10;99.90;;;;;;5093504;28;20021;-71
2023/01/08 05:56:02;;;;;;;1.23;1.10;;;9.00;99.90;;;;;;5092849;28;20046;-70
2023/01/08 05:58:28;;;;;;;1.27;1.00;;;8.90;99.90;;;;;;5085328;28;20024;-70
2023/01/08 06:00:54;;;;;;;1.65;1.00;;;8.90;99.90;;;;;;5070653;28;20390;-72
2023/01/08 06:03:21;;;;;;;1.52;1.35;;;8.80;99.90;;;;;;5073365;28;20388;-71
2023/01/08 06:05:47;;;;;;;1.67;1.20;;;8.80;99.90;;;;;;5072966;28;20150;-71
2023/01/08 06:08:12;;;;;;;1.73;1.30;;;8.70;99.90;;;;;;5072549;28;20127;-71
2023/01/08 06:10:38;;;;;;;1.85;1.02;;;8.60;99.90;;;;;;5073069;28;20032;-71
2023/01/08 06:13:08;;;;;;;2.60;1.08;;;8.50;99.90;;;;;;5071754;28;20480;-71
2023/01/08 06:15:34;;;;;;;;;;;8.40;99.90;;;;;;5073937;28;20025;-71
2023/01/08 06:18:03;;;;;;;2.05;1.02;;;8.40;99.90;;;;;;5071058;28;19931;-70
2023/01/08 06:20:28;;;;;;;2.53;1.15;;;8.30;99.90;;;;;;5073102;28;20037;-71
2023/01/08 06:22:54;;;;;;;3.35;1.25;;;8.30;99.90;;;;;;5070429;28;20031;-71
2023/01/08 06:25:20;;;;;;;2.33;1.00;;;8.20;99.90;;;;;;5073010;28;20050;-71
2023/01/08 06:27:50;;;;;;;1.23;0.95;;;8.20;99.90;;;;;;5072689;28;20452;-70
2023/01/08 06:30:16;;;;;;;2.65;1.00;;;8.10;99.90;;;;;;5071928;28;20090;-70
2023/01/08 06:32:42;;;;;;;2.08;1.20;;;8.10;99.90;;;;;;5072987;28;20420;-71
2023/01/08 06:35:08;;;;;;;1.95;1.02;;;8.00;99.90;;;;;;5072784;28;20056;-71
2023/01/08 06:37:33;;;;;;;1.08;0.93;;;7.90;99.90;;;;;;5092540;28;20036;-71
2023/01/08 06:39:59;;;;;;;1.65;0.80;;;7.90;99.90;;;;;;5091750;28;20064;-71
2023/01/08 06:42:24;;;;;;;1.15;1.00;;;8.00;99.90;;;;;;5092555;28;20024;-71
2023/01/08 06:44:50;;;;;;;3.90;0.93;;;8.00;99.90;;;;;;5092357;28;20467;-72
2023/01/08 06:47:15;;;;;;;3.13;0.98;;;8.10;99.90;;;;;;5073250;28;20028;-70
2023/01/08 06:49:41;;;;;;;1.30;1.13;;;8.10;99.90;;;;;;5072376;28;20040;-70
2023/01/08 06:52:07;;;;;;;1.65;0.80;;;8.20;99.90;;;;;;5080590;28;20028;-70
2023/01/08 06:54:32;;;;;;;1.95;1.00;;;8.20;99.90;;;;;;5092877;28;20028;-70
2023/01/08 06:56:58;;;;;;;2.13;0.80;;;8.20;99.90;;;;;;5076668;28;20031;-71
2023/01/08 06:59:23;;;;;;;1.80;1.50;;;8.20;99.90;;;;;;5092017;28;20044;-70
2023/01/08 07:01:49;;;;;;;1.25;1.02;;;8.30;99.90;;;;;;5092364;28;20036;-72
2023/01/08 07:04:15;;;;;;;1.35;0.70;;;8.30;99.90;;;;;;5091428;28;20031;-70
2023/01/08 07:06:41;;;;;;;2.67;1.08;;;8.30;99.90;;;;;;5079047;28;20147;-70
2023/01/08 07:09:08;;;;;;;1.67;1.15;;;8.30;99.90;;;;;;5070405;28;20086;-72
2023/01/08 07:11:33;;;;;;;1.80;1.00;;;8.30;99.90;;;;;;5072247;28;20043;-72
2023/01/08 07:13:59;;;;;;;1.52;0.95;;;8.30;99.90;;;;;;5071057;28;20024;-70
2023/01/08 07:16:24;;;;;;;1.67;1.00;;;8.40;99.90;;;;;;5090482;28;20070;-70
2023/01/08 07:18:50;;;;;;;0.88;0.77;;;8.30;99.90;;;;;;5090254;28;20036;-70
2023/01/08 07:21:15;;;;;;;3.63;0.70;;;8.40;99.90;;;;;;5092775;28;20511;-70
2023/01/08 07:23:41;;;;;;;1.23;0.77;;;8.40;99.90;;;;;;5091738;28;20044;-71
2023/01/08 07:26:07;;;;;;;1.60;0.90;;;8.40;99.90;;;;;;5089733;28;20024;-72
2023/01/08 07:28:33;;;;;;;0.80;0.70;;;8.30;99.90;;;;;;5073559;28;20028;-70
2023/01/08 07:31:03;;;;;;;1.25;0.65;;;8.30;99.90;;;;;;5091383;28;20081;-72
2023/01/08 07:33:28;;;;;;;1.08;0.65;;;8.40;99.90;;;;;;5091655;28;20108;-71
2023/01/08 07:35:55;;;;;;;0.75;0.73;;;8.40;99.90;;;;;;5084128;28;20111;-72
2023/01/08 07:38:21;;;;;;;1.42;1.00;;;8.40;99.90;;;;;;5071128;28;20070;-72
2023/01/08 07:40:47;;;;;;;2.25;0.80;;;8.30;99.90;;;;;;5072995;28;20036;-72
2023/01/08 07:43:13;;;;;;;2.47;1.00;;;8.30;99.90;;;;;;5090989;28;20131;-70
2023/01/08 07:45:39;;;;;;;2.05;0.82;;;8.20;99.90;;;;;;5091984;28;20035;-71
2023/01/08 07:48:05;;;;;;;0.95;0.43;;;8.10;99.90;;;;;;5089333;28;20381;-71
2023/01/08 07:50:31;;;;;;;2.17;0.88;;;8.10;99.90;;;;;;5085838;28;20389;-71
2023/01/08 07:53:01;;;;;;;1.13;0.90;;;8.00;99.90;;;;;;5089860;28;20111;-71
2023/01/08 07:55:27;;;;;;;0.57;0.50;;;8.00;99.90;;;;;;5085377;28;20034;-72
2023/01/08 07:57:53;;;;;;;1.15;0.88;;;8.00;99.90;;;;;;5089853;28;20047;-73
2023/01/08 08:00:19;;;;;;;1.00;0.90;;;8.00;99.90;;;;;;5092977;28;20039;-69
2023/01/08 08:02:44;;;;;;;1.80;1.10;;;7.90;99.90;;;;;;5091474;28;20031;-71
2023/01/08 08:05:10;;;;;;;2.17;0.65;;;8.00;99.90;;;;;;5090521;28;20054;-71
2023/01/08 08:07:36;;;;;;;1.48;0.70;;;7.90;99.90;;;;;;5089071;28;20032;-71
2023/01/08 08:10:03;;;;;;;1.70;0.93;;;7.90;99.90;;;;;;5083666;28;20393;-71
2023/01/08 08:12:28;;;;;;;1.85;1.00;;;7.90;99.90;;;;;;5088445;28;20024;-71
2023/01/08 08:14:54;;;;;;;1.50;0.90;;;7.90;99.90;;;;;;5089657;28;20409;-71
2023/01/08 08:17:19;;;;;;;1.58;0.85;;;7.90;99.90;;;;;;5090920;28;20028;-70
2023/01/08 08:19:45;;;;;;;2.90;1.00;;;7.90;99.90;;;;;;5088747;28;20083;-70
2023/01/08 08:22:12;;;;;;;1.08;0.90;;;7.90;99.90;;;;;;5088926;28;20036;-70
2023/01/08 08:24:37;;;;;;;2.00;1.00;;;7.90;99.90;;;;;;5088248;28;20763;-70
2023/01/08 08:27:03;;;;;;;1.45;0.98;;;7.90;99.90;;;;;;5087650;28;20112;-70
2023/01/08 08:29:29;;;;;;;1.73;0.77;;;7.90;99.90;;;;;;5086493;28;20032;-70
2023/01/08 08:31:54;;;;;;;1.48;1.02;;;7.90;99.90;;;;;;5087526;28;20035;-70
2023/01/08 08:34:21;;;;;;;2.53;1.48;;;7.80;99.90;;;;;;5088536;28;20039;-70
2023/01/08 08:36:47;;;;;;;2.97;1.50;;;7.80;99.90;;;;;;5089203;28;20039;-70
2023/01/08 08:39:13;;;;;;;2.13;1.02;;;7.80;99.90;;;;;;5087788;28;20036;-70
2023/01/08 08:41:39;;;;;;;2.03;1.20;;;7.80;99.90;;;;;;5090795;28;20107;-70
2023/01/08 08:44:05;;;;;;;3.13;1.13;;;7.80;99.90;;;;;;5089834;28;20070;-70
2023/01/08 08:46:30;;;;;;;2.10;1.02;;;7.70;99.90;;;;;;5092200;28;20381;-70
2023/01/08 08:48:56;;;;;;;1.33;1.10;;;7.70;99.90;;;;;;5091785;28;20058;-70
2023/01/08 08:51:21;;;;;;;1.40;1.15;;;7.70;99.90;;;;;;5093280;28;20127;-70
2023/01/08 08:53:47;;;;;;;2.35;1.10;;;7.80;99.90;;;;;;5092759;28;20032;-70
2023/01/08 08:56:13;;;;;;;3.70;0.93;;;7.80;99.90;;;;;;5092463;28;20036;-71
2023/01/08 08:58:40;;;;;;;1.90;1.00;;;7.80;99.90;;;;;;5090582;28;20028;-71
2023/01/08 09:01:07;;;;;;;2.40;1.33;;;7.80;99.90;;;;;;5092314;28;20492;-71
2023/01/08 09:03:33;;;;;;;3.00;1.50;;;7.80;99.90;;;;;;5093057;28;20047;-70
2023/01/08 09:05:59;;;;;;;0.88;0.82;;;7.90;99.90;;;;;;5090518;28;20040;-70
2023/01/08 09:08:24;;;;;;;1.70;1.13;;;7.90;99.90;;;;;;5092056;28;20024;-71
2023/01/08 09:10:50;;;;;;;2.67;1.33;;;8.00;99.90;;;;;;5092470;28;20034;-72
2023/01/08 09:13:16;;;;;;;4.18;1.25;;;8.00;99.90;;;;;;5091190;28;20016;-71
2023/01/08 09:15:41;;;;;;;5.53;1.38;;;8.00;99.90;;;;;;5091810;28;20056;-71
2023/01/08 09:18:07;;;;;;;1.80;1.10;;;8.10;99.90;;;;;;5091010;28;20081;-72
2023/01/08 09:20:32;;;;;;;2.70;0.77;;;8.10;99.90;;;;;;5092467;28;20036;-71
2023/01/08 09:22:59;;;;;;;1.52;0.80;;;8.20;99.90;;;;;;5090448;28;20051;-72
2023/01/08 09:25:24;;;;;;;0.80;0.70;;;8.20;99.90;;;;;;5090430;28;20039;-71
2023/01/08 09:28:01;;;;;;;1.35;1.00;;;8.20;99.90;;;;;;5096142;28;20027;-73
2023/01/08 09:30:27;;;;;;;1.92;0.98;;;8.30;99.90;;;;;;5093541;28;20043;-71
2023/01/08 09:33:01;;;;;;;3.05;1.00;;;8.30;99.90;;;;;;5092319;28;20028;-73
2023/01/08 09:35:27;;;;;;;1.80;1.00;;;8.40;99.90;;;;;;5093187;28;20020;-69
2023/01/08 09:37:54;;;;;;;3.65;1.15;;;8.40;99.90;;;;;;5083693;28;20031;-72
2023/01/08 09:40:23;;;;;;;1.38;1.23;;;8.40;99.90;;;;;;5092883;28;20032;-70
2023/01/08 09:42:54;;;;;;;1.58;0.98;;;8.40;99.90;;;;;;5091454;28;20039;-72
2023/01/08 09:45:31;;;;;;;3.55;1.45;;;8.50;99.90;;;;;;5091472;28;20016;-68
2023/01/08 09:48:01;;;;;;;1.45;1.10;;;8.50;99.90;;;;;;5093179;28;20047;-67
2023/01/08 09:50:29;;;;;;;2.57;1.20;;;8.50;99.90;;;;;;5094357;28;20028;-67
2023/01/08 09:52:55;;;;;;;4.97;1.27;;;8.60;99.90;;;;;;5091937;28;20270;-72
2023/01/08 09:55:21;;;;;;;2.97;0.93;;;8.60;99.90;;;;;;5093135;28;20036;-71
2023/01/08 09:57:47;;;;;;;1.17;0.98;;;8.60;99.90;;;;;;5090949;28;20046;-70
2023/01/08 10:00:29;;;;;;;1.25;0.88;;;8.70;99.90;;;;;;5086323;28;20024;-69
2023/01/08 10:02:56;;;;;;;2.42;0.82;;;8.60;99.90;;;;;;5091634;28;20066;-69
2023/01/08 10:05:22;;;;;;;2.60;1.00;;;8.70;99.90;;;;;;5092568;28;20385;-69
2023/01/08 10:07:48;;;;;;;1.88;0.88;;;8.70;99.90;;;;;;5081275;28;20024;-69
2023/01/08 10:10:23;;;;;;;1.17;0.98;;;8.80;99.90;;;;;;5092083;28;20024;-69
2023/01/08 10:12:50;;;;;;;2.38;1.40;;;8.90;99.90;;;;;;5092151;28;20023;-70
2023/01/08 10:15:18;;;;;;;1.33;0.90;;;9.00;99.90;;;;;;5091896;28;20112;-69
2023/01/08 10:18:03;;;;;;;1.42;1.08;;;8.90;99.90;;;;;;5091709;28;20465;-68
2023/01/08 10:20:30;;;;;;;1.35;1.00;;;8.90;99.90;;;;;;5091114;28;20054;-69
2023/01/08 10:23:06;;;;;;;2.13;1.30;;;8.90;99.90;;;;;;5090364;28;20473;-70
2023/01/08 10:25:32;;;;;;;2.10;1.38;;;9.00;99.90;;;;;;5092263;28;20078;-68
2023/01/08 10:28:01;;;;;;;1.95;1.08;;;9.00;99.90;;;;;;5085804;28;20028;-69
2023/01/08 10:30:36;;;;;;;1.77;1.13;;;9.10;99.90;;;;;;5091824;28;20028;-68
2023/01/08 10:33:10;;;;;;;1.42;0.60;;;9.10;99.90;;;;;;5080428;28;20035;-69
2023/01/08 10:35:41;;;;;;;1.17;0.70;;;9.10;99.90;;;;;;5091935;28;20126;-69
2023/01/08 10:38:25;;;;;;;1.25;0.90;;;9.20;99.90;;;;;;5070606;28;20074;-69
2023/01/08 10:40:51;;;;;;;1.15;0.52;;;9.30;99.90;;;;;;5081752;28;20039;-71
2023/01/08 10:43:29;;;;;;;1.10;0.90;;;9.40;99.90;;;;;;5091868;28;20028;-70
2023/01/08 10:46:07;;;;;;;1.88;1.05;;;9.40;99.90;;;;;;5083950;28;20385;-70
2023/01/08 10:48:37;;;;;;;1.15;0.93;;;9.40;99.90;;;;;;5089596;28;20438;-70
2023/01/08 10:51:15;;;;;;;1.88;1.10;;;9.40;99.90;;;;;;5091547;28;20440;-71
2023/01/08 10:53:41;;;;;;;1.35;0.73;;;9.40;99.90;;;;;;5092018;28;20024;-70
2023/01/08 10:56:27;;;;;;;3.80;0.98;;;9.50;99.90;;;;;;5091503;28;20421;-69
2023/01/08 10:58:52;;;;;;;1.30;0.60;;;9.60;99.90;;;;;;5088999;28;20070;-71
2023/01/08 11:01:22;;;;;;;1.10;0.85;;;9.60;99.90;;;;;;5084203;28;20052;-69
2023/01/08 11:03:55;;;;;;;0.82;0.60;;;9.70;99.90;;;;;;5091749;28;20051;-70
2023/01/08 11:06:46;;;;;;;1.42;0.68;;;9.90;99.90;;;;;;5079295;28;20028;-69
2023/01/08 11:09:39;;;;;;;2.45;0.80;;;9.80;99.90;;;;;;5089847;28;20165;-69
2023/01/08 11:12:34;;;;;;;0.73;0.60;;;10.00;99.90;;;;;;5083088;28;20024;-69
2023/01/08 11:15:00;;;;;;;1.08;0.73;;;10.00;99.90;;;;;;5090577;28;20530;-70
2023/01/08 11:17:27;;;;;;;0.98;0.60;;;10.10;99.90;;;;;;5091287;28;20024;-69
2023/01/08 11:19:52;;;;;;;1.48;0.60;;;10.10;99.90;;;;;;5090135;28;20028;-70
2023/01/08 11:22:21;;;;;;;1.10;0.70;;;10.10;99.90;;;;;;5091381;28;20031;-69
2023/01/08 11:24:49;;;;;;;1.02;0.70;;;10.20;99.90;;;;;;5090663;28;20052;-70
2023/01/08 11:27:20;;;;;;;0.90;0.50;;;10.20;99.90;;;;;;5087888;28;20028;-68
2023/01/08 11:29:59;;;;;;;1.02;0.80;;;10.30;99.90;;;;;;5091256;28;20047;-68
2023/01/08 11:32:36;;;;;;;0.95;0.57;;;10.40;99.90;;;;;;5090996;28;20032;-69
2023/01/08 11:35:13;;;;;;;0.80;0.60;;;10.40;99.90;;;;;;5089938;28;20523;-69
2023/01/08 11:37:49;;;;;;;0.50;0.50;;;10.40;99.90;;;;;;5091262;28;20040;-68
2023/01/08 11:40:32;;;;;;;1.27;0.40;;;10.50;99.90;;;;;;5090605;28;20067;-72
2023/01/08 11:43:26;;;;;;;0.70;0.65;;;10.50;99.90;;;;;;5082679;28;20031;-69
2023/01/08 11:46:19;;;;;;;0.82;0.63;;;10.50;99.90;;;;;;5083697;28;20043;-70
2023/01/08 11:48:54;;;;;;;0.70;0.60;;;10.60;99.90;;;;;;5090470;28;20488;-71
2023/01/08 11:51:47;;;;;;;0.70;0.70;;;10.60;99.90;;;;;;5091125;28;20075;-69
2023/01/08 11:54:33;;;;;;;1.00;0.63;;;10.60;99.90;;;;;;5083550;28;20036;-69
2023/01/08 11:57:13;;;;;;;0.65;0.60;;;10.70;99.90;;;;;;5098686;28;20484;-69
2023/01/08 12:00:16;;;;;;;0.60;0.52;;;10.80;99.90;;;;;;5089368;28;20119;-69
2023/01/08 12:03:07;;;;;;;0.60;0.60;;;10.80;99.90;;;;;;5097413;28;20038;-69
2023/01/08 12:05:35;;;;;;;;;;;10.70;99.90;;;;;;5098653;28;20028;-69
2023/01/08 12:08:11;;;;;;;1.25;0.60;;;10.70;99.90;;;;;;5083260;28;19912;-69
2023/01/08 12:10:59;;;;;;;0.50;0.50;;;10.60;99.90;;;;;;5093711;28;20036;-69
2023/01/08 12:13:39;;;;;;;0.60;0.60;;;10.60;99.90;;;;;;5088959;28;20028;-69
2023/01/08 12:16:40;;;;;;;1.33;0.52;;;10.50;99.90;;;;;;5090284;28;20020;-69
2023/01/08 12:19:28;;;;;;;0.68;0.68;;;10.40;99.90;;;;;;5037452;28;20354;-69
2023/01/08 12:21:57;;;;;;;0.80;0.80;;;10.40;99.90;;;;;;5091748;28;20024;-65
2023/01/08 12:25:08;;;;;;;4.60;0.70;;;10.40;99.90;;;;;;5081521;28;20131;-69
2023/01/08 12:27:54;;;;;;;1.05;0.60;;;10.30;99.90;;;;;;5057938;28;20066;-69
2023/01/08 12:30:44;;;;;;;1.65;0.80;;;10.30;99.90;;;;;;5088617;28;20036;-67
2023/01/08 12:34:01;;;;;;;1.30;0.70;;;10.30;99.90;;;;;;5084156;28;20024;-72
2023/01/08 12:36:36;;;;;;;0.93;0.70;;;10.30;99.90;;;;;;5062447;28;20024;-68
2023/01/08 12:39:09;;;;;;;1.00;0.57;;;10.30;99.90;;;;;;5077989;28;20064;-68
2023/01/08 12:41:35;;;;;;;0.75;0.70;;;10.30;99.90;;;;;;5093675;28;20457;-69
2023/01/08 12:44:05;;;;;;;0.95;0.70;;;10.30;99.90;;;;;;5084530;28;20032;-73
2023/01/08 12:46:34;;;;;;;0.95;0.85;;;10.30;99.90;;;;;;5092902;28;20020;-72
2023/01/08 12:49:00;;;;;;;0.65;0.60;;;10.30;99.90;;;;;;5091155;28;20103;-71
2023/01/08 12:52:06;;;;;;;0.73;0.70;;;10.30;99.90;;;;;;5093186;28;20020;-72
2023/01/08 12:55:06;;;;;;;0.98;0.80;;;10.40;99.90;;;;;;5089876;28;20058;-69
2023/01/08 12:57:39;;;;;;;1.17;0.90;;;10.40;99.90;;;;;;5082406;28;20074;-69
2023/01/08 13:00:24;;;;;;;0.63;0.55;;;10.40;99.90;;;;;;5091667;28;20070;-68
2023/01/08 13:03:00;;;;;;;2.22;0.77;;;10.40;99.90;;;;;;5091467;28;20070;-67
2023/01/08 13:05:34;;;;;;;1.02;0.60;;;10.40;99.90;;;;;;5094293;28;20073;-68
2023/01/08 13:08:41;;;;;;;0.52;0.40;;;10.40;99.90;;;;;;5090606;28;20036;-67
2023/01/08 13:11:07;;;;;;;0.50;0.40;;;10.50;99.90;;;;;;5094005;28;20142;-67